Time;durP1;ratioP1;P1;durP2;ratioP2;P2;SDS_P1;SDS_P2;PMS_P1;PMS_P2;Temp;Humidity;BMP_temperature;BMP_pressure;BME280_temperature;BME280_humidity;BME280_pressure;Samples;Min_cycle;Max_cycle;Signal;HPM_P1;HPM_P2
2021/12/19 00:01:25;;;;;;;8.00;3.83;;;;;;;8.21;76.27;103871.81;4938695;28;20039;-60
2021/12/19 00:04:00;;;;;;;12.60;5.90;;;;;;;8.19;76.35;103863.00;4929815;28;20039;-60
2021/12/19 00:09:10;;;;;;;8.70;3.80;;;;;;;8.22;76.77;103857.13;4928951;28;20536;-60
2021/12/19 00:11:36;;;;;;;8.57;3.90;;;;;;;8.27;76.65;103855.75;4924032;28;20379;-60
2021/12/19 00:14:07;;;;;;;8.45;3.75;;;;;;;8.35;76.12;103850.34;4931984;28;20050;-60
2021/12/19 00:16:33;;;;;;;8.90;3.63;;;;;;;8.33;76.48;103840.63;4938022;28;20454;-60
2021/12/19 00:18:59;;;;;;;10.60;4.25;;;;;;;8.32;76.02;103834.53;4935193;28;20098;-59
2021/12/19 00:21:27;;;;;;;9.57;4.10;;;;;;;8.32;76.00;103837.13;4929508;28;20403;-60
2021/12/19 00:23:53;;;;;;;9.48;3.80;;;;;;;8.34;76.39;103832.03;4935837;28;20050;-60
2021/12/19 00:26:19;;;;;;;11.45;4.07;;;;;;;8.33;76.61;103830.22;4945086;28;20403;-61
2021/12/19 00:28:46;;;;;;;10.52;3.63;;;;;;;8.44;76.04;103837.06;4942223;28;20137;-59
2021/12/19 00:31:12;;;;;;;28.80;14.25;;;;;;;8.37;76.62;103832.22;4941956;28;20078;-59
2021/12/19 00:33:37;;;;;;;22.80;11.63;;;;;;;8.39;76.32;103826.34;4931299;28;20066;-59
2021/12/19 00:36:04;;;;;;;13.13;5.30;;;;;;;8.40;76.69;103832.47;4941313;28;20128;-59
2021/12/19 00:38:31;;;;;;;10.77;4.32;;;;;;;8.42;76.80;103829.16;4921692;28;20540;-59
2021/12/19 00:40:57;;;;;;;12.52;4.38;;;;;;;8.46;76.73;103832.88;4940040;28;20079;-61
2021/12/19 00:46:04;;;;;;;13.18;4.22;;;;;;;8.48;76.88;103824.38;4943179;28;20713;-60
2021/12/19 00:48:30;;;;;;;11.40;4.00;;;;;;;8.49;76.75;103820.06;4931860;28;20050;-59
2021/12/19 00:50:55;;;;;;;10.48;4.28;;;;;;;8.48;76.52;103821.78;4942527;28;20522;-60
2021/12/19 00:53:20;;;;;;;11.82;4.07;;;;;;;8.52;76.37;103816.00;4929989;28;20454;-60
2021/12/19 00:55:46;;;;;;;12.32;4.68;;;;;;;8.53;76.61;103817.81;4931105;28;20039;-60
2021/12/19 00:58:11;;;;;;;11.18;4.20;;;;;;;8.57;76.91;103803.31;4940651;28;20133;-60
2021/12/19 01:00:36;;;;;;;11.38;4.05;;;;;;;8.69;76.56;103803.25;4942579;28;20066;-59
2021/12/19 01:03:03;;;;;;;10.90;3.50;;;;;;;8.75;76.35;103807.16;4940119;28;20081;-59
2021/12/19 01:05:34;;;;;;;9.25;3.55;;;;;;;8.74;76.75;103801.84;4938659;28;20065;-61
2021/12/19 01:07:59;;;;;;;8.57;3.25;;;;;;;8.79;76.95;103800.44;4945060;28;20438;-60
2021/12/19 01:10:25;;;;;;;10.60;3.60;;;;;;;8.80;76.69;103799.66;4936282;28;20649;-58
2021/12/19 01:12:50;;;;;;;9.43;3.53;;;;;;;8.82;77.16;103793.75;4940529;28;20417;-59
2021/12/19 01:15:17;;;;;;;13.82;5.18;;;;;;;8.86;76.62;103794.84;4937948;28;20525;-59
2021/12/19 01:17:43;;;;;;;15.38;5.03;;;;;;;8.87;76.60;103786.25;4934197;28;20061;-59
2021/12/19 01:20:16;;;;;;;13.02;5.13;;;;;;;8.88;76.66;103788.06;4938531;28;20487;-60
2021/12/19 01:22:42;;;;;;;13.48;5.22;;;;;;;8.80;76.40;103786.66;4941695;28;20053;-59
2021/12/19 01:25:08;;;;;;;15.50;5.40;;;;;;;8.82;76.38;103791.16;4937890;28;20197;-60
2021/12/19 01:27:33;;;;;;;14.43;5.35;;;;;;;8.83;76.56;103795.56;4933640;28;20043;-59
2021/12/19 01:29:59;;;;;;;18.45;5.72;;;;;;;8.81;76.29;103788.44;4938924;28;20055;-60
2021/12/19 01:32:25;;;;;;;15.85;6.00;;;;;;;8.80;76.71;103786.66;4938864;28;20042;-59
2021/12/19 01:34:50;;;;;;;17.05;5.40;;;;;;;8.78;76.36;103780.47;4941623;28;20050;-60
2021/12/19 01:37:15;;;;;;;17.70;5.45;;;;;;;8.78;76.79;103786.53;4939795;28;20473;-60
2021/12/19 01:39:41;;;;;;;14.85;5.28;;;;;;;8.79;76.52;103783.13;4932624;28;20580;-60
2021/12/19 01:42:09;;;;;;;16.52;5.20;;;;;;;8.85;76.41;103783.53;4936496;28;20039;-60
2021/12/19 01:44:34;;;;;;;14.70;4.70;;;;;;;8.84;76.34;103781.75;4930883;28;20055;-60
2021/12/19 01:47:00;;;;;;;14.93;5.30;;;;;;;8.85;76.94;103775.75;4940243;28;20065;-59
2021/12/19 01:49:26;;;;;;;15.35;5.00;;;;;;;8.92;76.85;103771.84;4932906;28;20430;-60
2021/12/19 01:51:51;;;;;;;13.45;4.40;;;;;;;8.92;76.11;103766.66;4932332;28;20086;-60
2021/12/19 01:54:17;;;;;;;10.68;4.10;;;;;;;8.95;76.46;103764.25;4941763;28;20051;-59
2021/12/19 01:56:42;;;;;;;10.13;3.60;;;;;;;8.95;76.77;103770.38;4940706;28;20051;-59
2021/12/19 01:59:10;;;;;;;9.80;3.20;;;;;;;9.04;76.69;103771.75;4929767;28;20105;-59
2021/12/19 02:01:51;;;;;;;7.85;2.92;;;;;;;9.05;76.72;103765.75;4936295;28;20050;-60
2021/12/19 02:04:17;;;;;;;5.90;2.20;;;;;;;9.09;76.32;103767.78;4930326;28;20054;-60
2021/12/19 02:06:43;;;;;;;3.95;1.90;;;;;;;9.13;76.60;103768.06;4936112;28;20162;-60
2021/12/19 02:09:10;;;;;;;5.60;2.05;;;;;;;9.13;76.06;103765.47;4933978;28;20067;-60
2021/12/19 02:11:36;;;;;;;5.00;2.20;;;;;;;9.14;76.57;103762.06;4927761;28;20571;-60
2021/12/19 02:14:02;;;;;;;6.18;2.20;;;;;;;9.16;76.23;103763.03;4940480;28;20118;-61
2021/12/19 02:16:28;;;;;;;5.13;1.90;;;;;;;9.15;76.55;103757.75;4937098;28;20529;-60
2021/12/19 02:18:54;;;;;;;5.50;1.90;;;;;;;9.21;76.56;103756.44;4943609;28;20205;-60
2021/12/19 02:21:19;;;;;;;4.22;1.98;;;;;;;9.18;76.69;103760.56;4942875;28;20042;-61
2021/12/19 02:23:44;;;;;;;5.57;2.03;;;;;;;9.16;76.36;103751.72;4937493;28;20788;-59
2021/12/19 02:26:12;;;;;;;4.03;1.73;;;;;;;9.14;76.99;103741.25;4935851;28;20055;-60
2021/12/19 02:28:38;;;;;;;6.50;2.10;;;;;;;9.15;76.76;103740.41;4941902;28;20117;-60
2021/12/19 02:31:03;;;;;;;4.72;2.00;;;;;;;9.13;76.43;103738.53;4932800;28;20114;-60
2021/12/19 02:33:31;;;;;;;4.70;2.13;;;;;;;9.21;76.97;103737.34;4931530;28;20134;-60
2021/12/19 02:36:08;;;;;;;4.93;2.17;;;;;;;9.21;76.58;103738.22;4943975;28;20142;-60
2021/12/19 02:49:04;;;;;;;9.52;3.38;;;;;;;9.35;76.74;103723.47;4926820;28;20124;-60
2021/12/19 02:51:34;;;;;;;8.75;3.50;;;;;;;9.36;76.60;103725.28;4928213;28;20391;-59
2021/12/19 02:54:00;;;;;;;7.65;3.40;;;;;;;9.41;76.59;103726.47;4941149;28;20051;-60
2021/12/19 02:56:27;;;;;;;8.88;3.75;;;;;;;9.37;76.59;103729.69;4926693;28;20042;-59
2021/12/19 02:58:52;;;;;;;7.47;2.97;;;;;;;9.32;76.78;103720.69;4930838;28;20477;-60
2021/12/19 03:01:18;;;;;;;7.07;3.53;;;;;;;9.45;75.92;103717.16;4936810;28;20051;-59
2021/12/19 03:03:44;;;;;;;8.63;3.63;;;;;;;9.34;76.58;103713.88;4934488;28;20300;-60
2021/12/19 03:06:09;;;;;;;7.68;3.47;;;;;;;9.41;76.21;103716.06;4938280;28;20587;-60
2021/12/19 03:08:40;;;;;;;8.43;3.45;;;;;;;9.40;76.06;103709.03;4937822;28;20394;-59
2021/12/19 03:11:23;;;;;;;9.27;3.05;;;;;;;9.23;76.53;103692.38;4941322;28;20101;-59
2021/12/19 03:19:17;;;;;;;7.47;3.08;;;;;;;9.36;76.51;103678.41;4932407;28;20477;-60
2021/12/19 03:21:43;;;;;;;7.63;2.78;;;;;;;9.36;76.23;103668.00;4935008;28;20348;-59
2021/12/19 03:24:08;;;;;;;6.70;3.13;;;;;;;9.35;76.40;103672.31;4954132;28;20045;-59
2021/12/19 03:26:34;;;;;;;6.50;2.90;;;;;;;9.31;76.53;103666.81;4939132;28;20663;-59
2021/12/19 03:28:59;;;;;;;5.63;2.75;;;;;;;9.36;76.34;103666.31;4930520;28;20139;-59
2021/12/19 03:31:25;;;;;;;8.25;3.33;;;;;;;9.31;76.54;103657.31;4937302;28;20039;-60
2021/12/19 03:33:50;;;;;;;7.95;3.38;;;;;;;9.31;76.93;103657.31;4934585;28;20138;-59
2021/12/19 03:36:19;;;;;;;7.55;3.20;;;;;;;9.37;76.73;103654.19;4936775;28;20101;-59
2021/12/19 03:38:45;;;;;;;8.15;3.38;;;;;;;9.39;76.88;103651.69;4939337;28;20645;-59
2021/12/19 03:43:39;;;;;;;5.43;2.33;;;;;;;9.47;76.63;103642.63;4931590;28;20133;-60
2021/12/19 03:46:05;;;;;;;7.38;2.63;;;;;;;9.46;76.65;103641.72;4940834;28;20097;-60
2021/12/19 03:48:30;;;;;;;6.28;2.10;;;;;;;9.41;76.65;103642.25;4940285;28;20493;-60
2021/12/19 03:50:56;;;;;;;5.13;2.00;;;;;;;9.48;76.39;103650.53;4930480;28;20043;-61
2021/12/19 03:53:22;;;;;;;4.82;1.95;;;;;;;9.46;76.77;103646.03;4937988;28;20318;-61
2021/12/19 03:55:48;;;;;;;4.20;1.90;;;;;;;9.52;76.76;103644.72;4931526;28;20074;-61
2021/12/19 03:58:14;;;;;;;4.78;1.85;;;;;;;9.52;76.55;103639.50;4938270;28;20046;-59
2021/12/19 04:00:45;;;;;;;5.28;2.25;;;;;;;9.51;76.37;103637.72;4941360;28;20663;-61
2021/12/19 04:03:16;;;;;;;5.70;2.30;;;;;;;9.51;76.63;103629.00;4938541;28;20339;-60
2021/12/19 04:05:42;;;;;;;7.20;2.33;;;;;;;9.53;76.66;103630.88;4935835;28;20169;-60
2021/12/19 04:08:08;;;;;;;5.78;2.40;;;;;;;9.52;76.70;103630.78;4938975;28;20062;-60
2021/12/19 04:10:33;;;;;;;4.85;2.30;;;;;;;9.52;76.52;103625.56;4939366;28;20058;-60
2021/12/19 04:12:59;;;;;;;7.00;2.25;;;;;;;9.58;76.44;103623.34;4942337;28;20074;-60
2021/12/19 04:15:24;;;;;;;6.05;2.20;;;;;;;9.52;76.82;103612.56;4940326;28;20153;-59
2021/12/19 04:17:50;;;;;;;5.30;2.25;;;;;;;9.56;76.88;103615.47;4940041;28;20058;-59
2021/12/19 04:20:18;;;;;;;5.88;2.42;;;;;;;9.52;76.58;103615.16;4936990;28;20045;-61
2021/12/19 04:22:43;;;;;;;8.50;2.70;;;;;;;9.55;77.16;103604.94;4930193;28;20039;-59
2021/12/19 04:25:09;;;;;;;6.03;2.05;;;;;;;9.50;76.94;103599.47;4942763;28;20411;-60
2021/12/19 04:27:36;;;;;;;4.20;1.70;;;;;;;9.56;76.67;103598.94;4930461;28;20290;-59
2021/12/19 04:30:04;;;;;;;3.17;1.48;;;;;;;9.56;76.48;103601.53;4942949;28;20053;-59
2021/12/19 04:32:56;;;;;;;3.80;1.80;;;;;;;9.47;76.79;103604.47;4941588;28;20409;-60
2021/12/19 04:35:21;;;;;;;4.45;2.00;;;;;;;9.52;76.46;103603.03;4948876;28;20078;-61
2021/12/19 04:40:35;;;;;;;;;;;;;;;9.56;76.74;103598.94;4931543;28;20090;-59
2021/12/19 04:51:20;;;;;;;7.33;2.50;;;;;;;9.57;76.66;103582.50;4941182;28;20058;-61
2021/12/19 05:14:36;;;;;;;3.83;1.60;;;;;;;9.65;76.72;103596.88;4937701;28;20230;-60
2021/12/19 05:17:08;;;;;;;2.63;1.30;;;;;;;9.58;76.54;103590.38;4942686;28;20412;-60
2021/12/19 05:19:47;;;;;;;3.03;1.30;;;;;;;9.60;76.52;103591.41;4929989;28;20235;-59
2021/12/19 05:22:13;;;;;;;4.55;1.65;;;;;;;9.66;76.21;103590.84;4941668;28;20046;-60
2021/12/19 05:24:47;;;;;;;3.97;1.50;;;;;;;9.64;76.52;103597.66;4945077;28;20051;-61
2021/12/19 05:27:12;;;;;;;2.80;1.50;;;;;;;9.60;76.64;103588.78;4939946;28;20141;-61
2021/12/19 05:29:39;;;;;;;4.47;1.63;;;;;;;9.65;76.75;103594.25;4934299;28;20974;-60
2021/12/19 05:32:04;;;;;;;4.55;1.55;;;;;;;9.62;76.60;103597.59;4941400;28;20407;-60
2021/12/19 05:34:30;;;;;;;5.78;1.83;;;;;;;9.60;76.32;103596.59;4936817;28;20047;-59
2021/12/19 05:45:12;;;;;;;1.40;0.80;;;;;;;9.50;77.07;103578.63;4937450;28;20054;-59
2021/12/19 05:47:39;;;;;;;1.92;0.82;;;;;;;9.54;76.89;103578.00;4930345;28;20501;-59
2021/12/19 05:50:05;;;;;;;2.05;0.90;;;;;;;9.60;76.53;103583.56;4943851;28;20413;-59
2021/12/19 05:52:30;;;;;;;2.30;1.00;;;;;;;9.60;76.72;103578.38;4943680;28;20078;-60
2021/12/19 05:54:56;;;;;;;2.25;0.98;;;;;;;9.65;76.72;103579.53;4943477;28;20122;-61
2021/12/19 05:57:21;;;;;;;1.58;0.82;;;;;;;9.62;76.85;103576.75;4937680;28;20559;-61
2021/12/19 05:59:47;;;;;;;2.53;0.80;;;;;;;9.65;76.94;103582.16;4930709;28;20341;-60
2021/12/19 06:02:12;;;;;;;2.63;1.00;;;;;;;9.67;77.00;103570.13;4940522;28;21209;-61
2021/12/19 06:04:37;;;;;;;2.95;1.00;;;;;;;9.68;76.61;103568.41;4942461;28;20446;-60
2021/12/19 06:07:03;;;;;;;1.60;1.00;;;;;;;9.62;76.89;103568.06;4938398;28;20324;-60
2021/12/19 06:09:28;;;;;;;2.33;1.00;;;;;;;9.63;76.85;103562.94;4925335;28;20057;-61
2021/12/19 06:11:53;;;;;;;2.22;1.00;;;;;;;9.63;76.97;103560.34;4936065;28;20451;-59
2021/12/19 06:14:19;;;;;;;3.42;1.05;;;;;;;9.67;76.87;103559.69;4937308;28;21327;-61
2021/12/19 06:16:44;;;;;;;1.52;0.70;;;;;;;9.65;76.64;103553.50;4942471;28;20541;-59
2021/12/19 06:19:10;;;;;;;3.53;1.00;;;;;;;9.65;76.72;103556.09;4943579;28;20097;-60
2021/12/19 06:21:35;;;;;;;1.55;0.73;;;;;;;9.63;76.28;103551.63;4933747;28;20137;-61
2021/12/19 06:24:01;;;;;;;1.63;0.80;;;;;;;9.67;76.55;103551.88;4942655;28;20074;-61
2021/12/19 06:26:26;;;;;;;1.90;0.90;;;;;;;9.67;76.62;103553.59;4937889;28;20109;-60
2021/12/19 06:28:51;;;;;;;4.10;1.10;;;;;;;9.62;77.05;103555.94;4940142;28;20097;-59
2021/12/19 06:31:17;;;;;;;1.80;1.00;;;;;;;9.65;77.08;103552.59;4936900;28;20138;-59
2021/12/19 06:33:43;;;;;;;3.55;1.27;;;;;;;9.67;76.96;103558.81;4933062;28;21073;-59
2021/12/19 06:36:09;;;;;;;2.63;1.15;;;;;;;9.67;77.17;103551.00;4956691;28;20326;-59
2021/12/19 06:38:35;;;;;;;2.10;1.00;;;;;;;9.57;77.18;103544.34;4935673;28;20086;-59
2021/12/19 06:41:00;;;;;;;3.40;0.90;;;;;;;9.60;76.59;103548.81;4941231;28;20050;-59
2021/12/19 06:43:28;;;;;;;1.80;0.77;;;;;;;9.49;76.68;103542.97;4927171;28;20117;-59
2021/12/19 06:45:55;;;;;;;2.85;1.00;;;;;;;9.46;76.95;103532.34;4931717;28;20047;-59
2021/12/19 06:48:24;;;;;;;1.73;0.98;;;;;;;9.49;76.77;103529.06;4938897;28;20099;-60
2021/12/19 06:50:51;;;;;;;4.15;1.48;;;;;;;9.51;77.35;103538.78;4941212;28;20051;-60
2021/12/19 06:53:16;;;;;;;3.90;1.40;;;;;;;9.62;77.00;103531.59;4944094;28;20397;-60
2021/12/19 06:55:42;;;;;;;3.50;1.50;;;;;;;9.53;76.86;103528.41;4930457;28;20359;-60
2021/12/19 06:58:07;;;;;;;3.60;1.48;;;;;;;9.50;76.92;103521.34;4929814;28;20050;-60
2021/12/19 07:00:33;;;;;;;4.30;1.60;;;;;;;9.52;77.02;103527.53;4935572;28;20101;-60
2021/12/19 07:02:58;;;;;;;4.68;1.70;;;;;;;9.57;77.32;103518.31;4936062;28;20132;-60
2021/12/19 07:05:24;;;;;;;3.05;1.60;;;;;;;9.55;76.88;103517.31;4936972;28;20501;-60
2021/12/19 07:07:50;;;;;;;2.40;1.00;;;;;;;9.50;77.32;103523.94;4932435;28;20058;-59
2021/12/19 07:10:15;;;;;;;1.77;0.93;;;;;;;9.51;76.84;103517.03;4930400;28;20035;-59
2021/12/19 07:12:40;;;;;;;2.03;1.00;;;;;;;9.54;77.20;103523.31;4935971;28;20145;-60
2021/12/19 07:15:06;;;;;;;4.13;0.80;;;;;;;9.58;76.78;103521.78;4932409;28;20047;-61
2021/12/19 07:17:32;;;;;;;2.58;0.90;;;;;;;9.50;77.07;103518.75;4923843;28;20170;-59
2021/12/19 07:19:57;;;;;;;1.67;0.70;;;;;;;9.47;76.93;103518.53;4939456;28;20125;-60
2021/12/19 07:22:22;;;;;;;2.53;0.80;;;;;;;9.49;77.22;103516.03;4937554;28;20058;-60
2021/12/19 07:24:48;;;;;;;1.35;0.80;;;;;;;9.45;76.99;103519.28;4942751;28;20042;-60
2021/12/19 07:27:14;;;;;;;2.55;0.80;;;;;;;9.34;77.85;103527.31;4923805;28;20566;-61
2021/12/19 07:29:40;;;;;;;2.95;0.90;;;;;;;9.38;77.46;103517.09;4945965;28;20034;-60
2021/12/19 07:32:05;;;;;;;2.58;0.90;;;;;;;9.42;77.32;103508.66;4939731;28;20058;-60
2021/12/19 07:34:33;;;;;;;2.33;0.98;;;;;;;9.47;77.54;103515.03;4939830;28;20046;-61
2021/12/19 07:37:00;;;;;;;2.75;0.90;;;;;;;9.51;77.33;103514.44;4941674;28;20443;-61
2021/12/19 07:39:39;;;;;;;2.67;1.00;;;;;;;9.51;76.96;103511.81;4936182;28;20043;-59
2021/12/19 07:42:07;;;;;;;2.10;0.98;;;;;;;9.49;76.65;103514.34;4943890;28;20142;-60
2021/12/19 07:44:33;;;;;;;3.10;1.25;;;;;;;9.45;76.71;103516.66;4934698;28;20553;-60
2021/12/19 07:46:59;;;;;;;2.65;1.30;;;;;;;9.51;76.50;103506.63;4940544;28;20434;-59
2021/12/19 07:49:24;;;;;;;3.35;1.27;;;;;;;9.51;77.19;103511.81;4939277;28;20333;-59
2021/12/19 07:51:50;;;;;;;5.47;1.50;;;;;;;9.53;76.80;103503.28;4933138;28;20222;-60
2021/12/19 07:54:16;;;;;;;4.88;1.55;;;;;;;9.51;77.28;103512.72;4942286;28;20054;-60
2021/12/19 07:56:41;;;;;;;4.07;1.67;;;;;;;9.41;76.98;103520.78;4942547;28;20069;-60
2021/12/19 07:59:07;;;;;;;2.78;1.55;;;;;;;9.32;77.64;103513.31;4942423;28;20658;-60
2021/12/19 08:01:33;;;;;;;2.95;1.60;;;;;;;9.23;77.59;103514.47;4929134;28;20421;-60
2021/12/19 08:03:58;;;;;;;4.63;1.88;;;;;;;9.40;77.35;103508.56;4957488;28;20537;-60
2021/12/19 08:06:24;;;;;;;4.13;1.50;;;;;;;9.38;77.00;103512.78;4937716;28;20098;-59
2021/12/19 08:08:55;;;;;;;2.92;1.50;;;;;;;9.45;77.10;103512.38;4940894;28;20696;-59
2021/12/19 08:14:04;;;;;;;1.65;0.90;;;;;;;9.46;76.89;103508.94;4938452;28;20066;-60
2021/12/19 08:16:30;;;;;;;2.17;0.90;;;;;;;9.46;77.06;103503.72;4933634;28;20043;-60
2021/12/19 08:18:55;;;;;;;1.52;1.00;;;;;;;9.47;76.64;103500.31;4941993;28;20701;-61
2021/12/19 08:21:21;;;;;;;1.73;0.95;;;;;;;9.55;76.61;103498.16;4936328;28;20053;-59
2021/12/19 08:23:46;;;;;;;1.50;1.00;;;;;;;9.47;76.53;103492.50;4936342;28;20043;-60
2021/12/19 08:26:12;;;;;;;1.83;0.90;;;;;;;9.58;76.85;103490.53;4943346;28;20046;-59
2021/12/19 08:28:38;;;;;;;2.97;0.90;;;;;;;9.62;76.51;103490.81;4929085;28;20664;-60
2021/12/19 08:31:03;;;;;;;2.42;0.80;;;;;;;9.68;76.53;103485.06;4938651;28;20042;-60
2021/12/19 08:33:28;;;;;;;4.20;1.00;;;;;;;9.70;76.53;103491.25;4937184;28;20109;-60
2021/12/19 08:35:54;;;;;;;2.13;0.80;;;;;;;9.66;76.47;103492.78;4940887;28;20114;-60
2021/12/19 08:38:19;;;;;;;1.77;0.75;;;;;;;9.73;76.53;103489.72;4937110;28;20138;-60
2021/12/19 08:40:46;;;;;;;2.65;0.90;;;;;;;9.74;76.61;103491.53;4940282;28;20053;-61
2021/12/19 08:43:14;;;;;;;2.17;0.90;;;;;;;9.73;76.47;103487.13;4942689;28;20061;-60
2021/12/19 08:45:40;;;;;;;3.42;1.10;;;;;;;9.72;76.50;103487.94;4947695;28;20047;-61
2021/12/19 08:48:05;;;;;;;1.83;0.85;;;;;;;9.77;76.71;103488.19;4930477;28;20461;-59
2021/12/19 08:50:31;;;;;;;1.67;0.93;;;;;;;9.76;76.51;103486.38;4942723;28;20097;-59
2021/12/19 08:52:57;;;;;;;2.33;1.13;;;;;;;9.85;76.42;103483.44;4940788;28;20647;-60
2021/12/19 08:55:23;;;;;;;2.10;1.20;;;;;;;9.85;76.83;103484.31;4944648;28;20363;-59
2021/12/19 08:57:48;;;;;;;2.90;1.20;;;;;;;9.75;76.73;103482.91;4934026;28;20170;-59
2021/12/19 09:00:16;;;;;;;3.05;1.10;;;;;;;9.68;76.89;103485.97;4935967;28;20573;-60
2021/12/19 09:02:44;;;;;;;3.22;1.20;;;;;;;9.85;76.90;103483.44;4941397;28;20190;-61
2021/12/19 09:05:09;;;;;;;4.22;1.10;;;;;;;9.52;77.17;103484.94;4926512;28;20054;-60
2021/12/19 09:07:35;;;;;;;2.85;1.00;;;;;;;9.81;76.68;103477.16;4932811;28;20046;-59
2021/12/19 09:10:00;;;;;;;2.70;1.00;;;;;;;9.60;77.03;103478.50;4940695;28;20055;-60
2021/12/19 09:12:27;;;;;;;3.95;1.10;;;;;;;9.53;77.17;103478.94;4933189;28;20050;-60
2021/12/19 09:14:53;;;;;;;2.33;1.10;;;;;;;9.60;77.32;103476.78;4940807;28;20062;-60
2021/12/19 09:17:18;;;;;;;2.60;1.40;;;;;;;9.80;76.90;103484.88;4930502;28;20043;-61
2021/12/19 09:19:44;;;;;;;3.25;1.10;;;;;;;9.91;76.64;103482.06;4938918;28;20167;-60
2021/12/19 09:22:09;;;;;;;2.17;1.08;;;;;;;9.99;75.94;103483.44;4944137;28;20512;-59
2021/12/19 09:24:35;;;;;;;2.88;0.95;;;;;;;10.00;75.83;103486.94;4944846;28;20368;-60
2021/12/19 09:27:01;;;;;;;2.75;0.95;;;;;;;10.02;75.93;103485.28;4928417;28;20276;-60
2021/12/19 09:29:28;;;;;;;1.65;0.90;;;;;;;10.03;76.15;103477.56;4936119;28;20295;-59
2021/12/19 09:31:54;;;;;;;2.47;1.00;;;;;;;10.03;75.89;103474.06;4938081;28;20129;-60
2021/12/19 09:34:19;;;;;;;4.13;1.05;;;;;;;9.87;75.94;103477.50;4942498;28;20046;-60
2021/12/19 09:36:45;;;;;;;2.38;1.00;;;;;;;10.03;75.29;103468.84;4942575;28;20053;-60
2021/12/19 09:39:10;;;;;;;1.85;1.00;;;;;;;10.07;75.71;103476.00;4928950;28;20075;-60
2021/12/19 09:41:42;;;;;;;2.75;1.15;;;;;;;10.13;75.53;103478.97;4932644;28;20187;-60
2021/12/19 09:44:09;;;;;;;2.05;1.30;;;;;;;9.90;75.81;103472.47;4940415;28;20035;-58
2021/12/19 09:46:37;;;;;;;1.80;1.20;;;;;;;9.81;76.19;103471.94;4939530;28;20498;-59
2021/12/19 09:49:08;;;;;;;3.78;1.35;;;;;;;10.12;75.81;103479.81;4954773;28;20043;-60
2021/12/19 09:51:33;;;;;;;2.80;1.30;;;;;;;10.18;75.28;103478.44;4946286;28;20130;-60
2021/12/19 09:53:58;;;;;;;2.92;1.10;;;;;;;10.21;75.27;103475.13;4938494;28;20047;-60
2021/12/19 09:56:24;;;;;;;7.45;1.20;;;;;;;10.26;75.15;103476.28;4953779;28;20071;-59
2021/12/19 09:58:50;;;;;;;4.05;1.10;;;;;;;10.17;74.55;103470.56;4938453;28;20046;-59
2021/12/19 10:01:15;;;;;;;1.40;0.80;;;;;;;10.14;74.42;103471.25;4940214;28;20468;-59
2021/12/19 10:03:40;;;;;;;3.13;0.60;;;;;;;10.22;73.82;103474.31;4934000;28;20101;-60
2021/12/19 10:06:14;;;;;;;2.10;0.80;;;;;;;10.03;73.53;103471.44;4936795;28;20047;-59
2021/12/19 10:08:40;;;;;;;1.15;0.60;;;;;;;10.24;73.29;103472.72;4940860;28;20046;-59
2021/12/19 10:11:13;;;;;;;2.78;1.63;;;;;;;10.26;73.71;103470.16;4934278;28;20548;-60
2021/12/19 10:13:39;;;;;;;3.40;1.73;;;;;;;10.30;73.68;103466.94;4931986;28;20038;-59
2021/12/19 10:16:24;;;;;;;3.55;1.02;;;;;;;10.29;73.75;103462.53;4939888;28;20488;-60
2021/12/19 10:18:51;;;;;;;3.38;1.35;;;;;;;10.37;73.69;103463.88;4939303;28;20050;-59
2021/12/19 10:21:19;;;;;;;3.45;1.48;;;;;;;10.36;73.61;103452.53;4937969;28;20039;-61
2021/12/19 10:23:45;;;;;;;6.13;1.23;;;;;;;10.40;73.76;103451.88;4933031;28;20429;-59
2021/12/19 10:26:11;;;;;;;2.58;1.20;;;;;;;10.40;74.20;103448.38;4935015;28;20055;-59
2021/12/19 10:28:50;;;;;;;4.43;1.10;;;;;;;10.42;73.88;103451.97;4938105;28;20043;-60
2021/12/19 10:31:15;;;;;;;4.70;1.30;;;;;;;10.37;74.04;103450.81;4954059;28;20046;-59
2021/12/19 10:33:41;;;;;;;3.78;1.40;;;;;;;10.37;73.84;103443.00;4927162;28;20497;-59
2021/12/19 10:36:09;;;;;;;6.00;1.40;;;;;;;10.37;74.11;103438.66;4935907;28;20058;-60
2021/12/19 10:38:38;;;;;;;4.20;1.40;;;;;;;10.51;73.88;103442.91;4941202;28;20137;-60
2021/12/19 10:41:11;;;;;;;5.15;1.40;;;;;;;10.47;73.23;103442.69;4937116;28;20035;-60
2021/12/19 10:43:57;;;;;;;3.00;1.40;;;;;;;10.50;73.11;103437.63;4919825;28;20105;-60
2021/12/19 10:46:29;;;;;;;3.60;1.60;;;;;;;10.41;73.48;103430.22;4938333;28;20049;-59
2021/12/19 10:48:54;;;;;;;3.90;1.80;;;;;;;10.48;74.01;103415.78;4935594;28;20043;-59
2021/12/19 10:51:20;;;;;;;5.78;1.95;;;;;;;10.43;73.82;103422.47;4939522;28;20054;-60
2021/12/19 10:53:52;;;;;;;5.97;1.85;;;;;;;10.53;74.01;103416.94;4933681;28;20053;-59
2021/12/19 10:56:38;;;;;;;5.07;1.98;;;;;;;10.54;74.02;103414.41;4932930;28;20233;-60
2021/12/19 10:59:16;;;;;;;5.15;2.13;;;;;;;10.62;73.83;103400.84;4935705;28;21054;-61
2021/12/19 11:01:51;;;;;;;6.55;2.60;;;;;;;10.63;73.62;103395.72;4925803;28;20039;-61
2021/12/19 11:04:22;;;;;;;6.88;2.60;;;;;;;10.64;72.50;103391.41;4939707;28;20047;-60
2021/12/19 11:06:52;;;;;;;7.30;3.20;;;;;;;10.65;72.45;103388.91;4928104;28;20157;-60
2021/12/19 11:09:24;;;;;;;9.18;3.17;;;;;;;10.52;72.14;103392.56;4938052;28;20051;-61
2021/12/19 11:11:50;;;;;;;8.70;3.15;;;;;;;10.47;71.94;103399.25;4934247;28;20193;-60
2021/12/19 11:14:25;;;;;;;12.05;3.47;;;;;;;10.39;72.09;103387.50;4939711;28;20532;-59
2021/12/19 11:16:54;;;;;;;13.38;3.70;;;;;;;10.29;72.69;103380.00;4933843;28;20062;-60
2021/12/19 11:19:24;;;;;;;10.75;3.53;;;;;;;10.43;72.27;103384.22;4940755;28;20129;-61
2021/12/19 11:21:49;;;;;;;12.77;3.50;;;;;;;10.48;72.20;103374.97;4937026;28;20046;-60
2021/12/19 11:24:17;;;;;;;9.32;3.67;;;;;;;10.49;72.03;103374.13;4935130;28;20464;-60
2021/12/19 11:26:45;;;;;;;9.95;3.10;;;;;;;10.43;72.04;103367.72;4934972;28;20361;-60
2021/12/19 11:29:12;;;;;;;9.43;2.90;;;;;;;10.43;70.95;103362.50;4938430;28;20326;-60
2021/12/19 11:31:39;;;;;;;7.38;2.25;;;;;;;10.48;70.44;103359.31;4933056;28;20511;-59
2021/12/19 11:34:25;;;;;;;8.38;2.45;;;;;;;10.54;70.08;103357.03;4934598;28;20035;-60
2021/12/19 11:36:53;;;;;;;12.02;3.00;;;;;;;10.62;70.40;103349.59;4936478;28;20157;-59
2021/12/19 11:39:18;;;;;;;8.43;2.40;;;;;;;10.58;69.88;103350.25;4937080;28;20063;-60
2021/12/19 11:42:06;;;;;;;10.35;2.95;;;;;;;10.62;70.25;103349.59;4936072;28;20109;-60
2021/12/19 11:44:35;;;;;;;7.85;2.72;;;;;;;10.63;70.52;103340.03;4933685;28;20577;-60
2021/12/19 11:47:06;;;;;;;9.30;2.65;;;;;;;10.66;70.52;103340.22;4933047;28;20050;-60
2021/12/19 11:49:31;;;;;;;9.00;2.78;;;;;;;10.72;70.06;103333.63;4934223;28;20182;-60
2021/12/19 11:52:26;;;;;;;8.02;2.80;;;;;;;10.68;70.22;103326.44;4940881;28;20043;-60
2021/12/19 11:55:13;;;;;;;10.32;3.10;;;;;;;10.64;70.17;103332.31;4934005;28;20051;-61
2021/12/19 11:57:42;;;;;;;13.05;3.03;;;;;;;10.66;70.83;103321.97;4928780;28;20047;-60
2021/12/19 12:00:28;;;;;;;10.57;3.20;;;;;;;10.67;70.64;103328.97;4933938;28;20301;-59
2021/12/19 12:03:12;;;;;;;10.57;2.90;;;;;;;10.43;71.08;103324.25;4937280;28;20073;-60
2021/12/19 12:05:46;;;;;;;11.40;3.20;;;;;;;10.58;71.03;103321.56;4932316;28;20795;-60
2021/12/19 12:08:15;;;;;;;11.30;3.53;;;;;;;10.36;71.61;103332.59;4935202;28;20062;-60
2021/12/19 12:11:07;;;;;;;9.52;3.22;;;;;;;10.27;71.22;103326.88;4940026;28;20515;-59
2021/12/19 12:13:40;;;;;;;9.57;2.65;;;;;;;10.13;71.18;103328.69;4933214;28;20039;-61
2021/12/19 12:16:11;;;;;;;11.23;2.90;;;;;;;10.12;71.09;103328.63;4931184;28;20077;-61
2021/12/19 12:18:38;;;;;;;9.55;2.65;;;;;;;10.05;70.61;103314.38;4935747;28;20888;-60
2021/12/19 12:21:48;;;;;;;7.35;2.45;;;;;;;10.22;70.32;103320.50;4937680;28;20137;-60
2021/12/19 12:24:15;;;;;;;10.02;2.00;;;;;;;10.37;69.82;103313.50;4935495;28;20049;-59
2021/12/19 12:26:53;;;;;;;7.75;2.40;;;;;;;10.29;70.10;103316.53;4935608;28;20143;-60
2021/12/19 12:29:20;;;;;;;3.85;1.73;;;;;;;10.24;69.91;103311.06;4935503;28;20081;-59
2021/12/19 12:31:46;;;;;;;4.75;1.40;;;;;;;10.02;69.87;103313.28;4932822;28;20591;-59
2021/12/19 12:34:13;;;;;;;3.60;1.13;;;;;;;9.53;70.87;103323.59;4943853;28;20489;-60
2021/12/19 12:36:39;;;;;;;3.65;1.00;;;;;;;9.43;72.02;103325.59;4941758;28;20339;-60
2021/12/19 12:39:10;;;;;;;5.55;1.25;;;;;;;9.41;71.69;103314.19;4941639;28;20109;-61